Time;durP1;ratioP1;P1;durP2;ratioP2;P2;SDS_P1;SDS_P2;PMS_P1;PMS_P2;Temp;Humidity;BMP_temperature;BMP_pressure;BME280_temperature;BME280_humidity;BME280_pressure;Samples;Min_cycle;Max_cycle;Signal;HPM_P1;HPM_P2
2022/04/29 00:00:00;;;;;;;9.8;7.4;;;;;;;10.3;100.0;102760;;;;
2022/04/29 00:01:00;;;;;;;9.8;7.4;;;;;;;10.3;100.0;102760;;;;
2022/04/29 00:02:00;;;;;;;9.8;7.4;;;;;;;10.2;100.0;102760;;;;
2022/04/29 00:03:00;;;;;;;9.8;7.4;;;;;;;10.2;100.0;102760;;;;
2022/04/29 00:04:00;;;;;;;9.8;7.4;;;;;;;10.2;100.0;102760;;;;
2022/04/29 00:05:00;;;;;;;11.1;7.5;;;;;;;10.2;100.0;102760;;;;
2022/04/29 00:06:00;;;;;;;11.1;7.5;;;;;;;10.3;100.0;102750;;;;
2022/04/29 00:07:00;;;;;;;11.1;7.5;;;;;;;10.3;100.0;102750;;;;
2022/04/29 00:08:00;;;;;;;11.1;7.5;;;;;;;10.1;100.0;102750;;;;
2022/04/29 00:09:00;;;;;;;11.1;7.5;;;;;;;10.1;100.0;102750;;;;
2022/04/29 00:10:00;;;;;;;11.1;7.5;;;;;;;10.1;100.0;102740;;;;
2022/04/29 00:11:00;;;;;;;11.1;7.5;;;;;;;10.1;100.0;102740;;;;
2022/04/29 00:12:02;;;;;;;11.1;7.5;;;;;;;10.0;100.0;102740;;;;
2022/04/29 00:13:00;;;;;;;11.1;7.5;;;;;;;10.0;100.0;102740;;;;
2022/04/29 00:14:00;;;;;;;11.1;7.5;;;;;;;9.9;100.0;102740;;;;
2022/04/29 00:15:00;;;;;;;11.1;7.5;;;;;;;9.9;100.0;102740;;;;
2022/04/29 00:16:00;;;;;;;11.1;7.5;;;;;;;10.0;100.0;102740;;;;
2022/04/29 00:17:00;;;;;;;11.1;7.5;;;;;;;10.0;100.0;102740;;;;
2022/04/29 00:18:00;;;;;;;11.1;7.5;;;;;;;9.9;100.0;102730;;;;
2022/04/29 00:19:00;;;;;;;11.1;7.5;;;;;;;9.9;100.0;102730;;;;
2022/04/29 00:20:00;;;;;;;11.1;7.5;;;;;;;9.7;100.0;102730;;;;
2022/04/29 00:21:00;;;;;;;11.1;7.5;;;;;;;9.7;100.0;102730;;;;
2022/04/29 00:22:00;;;;;;;11.1;7.5;;;;;;;9.6;100.0;102730;;;;
2022/04/29 00:23:00;;;;;;;11.1;7.5;;;;;;;9.6;100.0;102730;;;;
2022/04/29 00:24:00;;;;;;;11.1;7.5;;;;;;;9.5;100.0;102720;;;;
2022/04/29 00:25:00;;;;;;;10.5;7.9;;;;;;;9.5;100.0;102720;;;;
2022/04/29 00:26:00;;;;;;;10.5;7.9;;;;;;;9.6;100.0;102730;;;;
2022/04/29 00:27:00;;;;;;;10.5;7.9;;;;;;;9.6;100.0;102730;;;;
2022/04/29 00:28:00;;;;;;;10.5;7.9;;;;;;;9.6;100.0;102720;;;;
2022/04/29 00:29:00;;;;;;;10.5;7.9;;;;;;;9.6;100.0;102720;;;;
2022/04/29 00:30:00;;;;;;;10.5;7.9;;;;;;;9.7;100.0;102720;;;;
2022/04/29 00:31:00;;;;;;;10.5;7.9;;;;;;;9.7;100.0;102720;;;;
2022/04/29 00:32:00;;;;;;;10.5;7.9;;;;;;;9.5;100.0;102720;;;;
2022/04/29 00:33:00;;;;;;;10.5;7.9;;;;;;;9.5;100.0;102720;;;;
2022/04/29 00:34:00;;;;;;;10.5;7.9;;;;;;;9.6;100.0;102720;;;;
2022/04/29 00:35:00;;;;;;;10.5;7.9;;;;;;;9.6;100.0;102720;;;;
2022/04/29 00:36:00;;;;;;;10.5;7.9;;;;;;;9.5;100.0;102720;;;;
2022/04/29 00:37:00;;;;;;;10.5;7.9;;;;;;;9.5;100.0;102720;;;;
2022/04/29 00:38:00;;;;;;;10.5;7.9;;;;;;;9.7;100.0;102730;;;;
2022/04/29 00:39:00;;;;;;;10.5;7.9;;;;;;;9.7;100.0;102730;;;;
2022/04/29 00:40:00;;;;;;;10.5;7.9;;;;;;;9.5;100.0;102730;;;;
2022/04/29 00:41:00;;;;;;;10.5;7.9;;;;;;;9.5;100.0;102730;;;;
2022/04/29 00:42:00;;;;;;;10.5;7.9;;;;;;;9.5;100.0;102720;;;;
2022/04/29 00:43:00;;;;;;;10.5;7.9;;;;;;;9.5;100.0;102720;;;;
2022/04/29 00:44:00;;;;;;;10.5;7.9;;;;;;;9.6;100.0;102730;;;;
2022/04/29 00:45:00;;;;;;;10.4;7.3;;;;;;;9.6;100.0;102730;;;;
2022/04/29 00:46:00;;;;;;;10.4;7.3;;;;;;;9.6;100.0;102720;;;;
2022/04/29 00:47:00;;;;;;;10.4;7.3;;;;;;;9.6;100.0;102720;;;;
2022/04/29 00:48:00;;;;;;;10.4;7.3;;;;;;;9.4;100.0;102720;;;;
2022/04/29 00:49:00;;;;;;;10.4;7.3;;;;;;;9.4;100.0;102720;;;;
2022/04/29 00:50:00;;;;;;;10.4;7.3;;;;;;;9.4;100.0;102720;;;;
2022/04/29 00:51:00;;;;;;;10.4;7.3;;;;;;;9.4;100.0;102720;;;;
2022/04/29 00:52:00;;;;;;;10.4;7.3;;;;;;;9.4;100.0;102720;;;;
2022/04/29 00:53:01;;;;;;;10.4;7.3;;;;;;;9.4;100.0;102720;;;;
2022/04/29 00:54:01;;;;;;;10.4;7.3;;;;;;;9.4;100.0;102720;;;;
2022/04/29 00:55:02;;;;;;;10.4;7.3;;;;;;;9.4;100.0;102720;;;;
2022/04/29 00:56:02;;;;;;;10.4;7.3;;;;;;;9.5;100.0;102710;;;;
2022/04/29 00:57:00;;;;;;;10.4;7.3;;;;;;;9.5;100.0;102710;;;;
2022/04/29 00:58:01;;;;;;;10.4;7.3;;;;;;;9.4;100.0;102710;;;;
2022/04/29 00:59:03;;;;;;;10.4;7.3;;;;;;;9.4;100.0;102710;;;;
2022/04/29 01:00:03;;;;;;;10.4;7.3;;;;;;;9.3;100.0;102710;;;;
2022/04/29 01:01:02;;;;;;;10.4;7.3;;;;;;;9.3;100.0;102710;;;;
2022/04/29 01:02:03;;;;;;;10.4;7.3;;;;;;;9.2;100.0;102710;;;;
2022/04/29 01:03:00;;;;;;;10.4;7.3;;;;;;;9.2;100.0;102710;;;;
2022/04/29 01:04:02;;;;;;;10.4;7.3;;;;;;;9.3;100.0;102710;;;;
2022/04/29 01:05:02;;;;;;;10.8;7.4;;;;;;;9.3;100.0;102710;;;;
2022/04/29 01:06:00;;;;;;;10.8;7.4;;;;;;;9.3;100.0;102710;;;;
2022/04/29 01:07:00;;;;;;;10.8;7.4;;;;;;;9.3;100.0;102710;;;;
2022/04/29 01:08:01;;;;;;;10.8;7.4;;;;;;;9.3;100.0;102710;;;;
2022/04/29 01:09:00;;;;;;;10.8;7.4;;;;;;;9.3;100.0;102710;;;;
2022/04/29 01:10:00;;;;;;;10.8;7.4;;;;;;;9.3;100.0;102710;;;;
2022/04/29 01:11:01;;;;;;;10.8;7.4;;;;;;;9.3;100.0;102710;;;;
2022/04/29 01:12:00;;;;;;;10.8;7.4;;;;;;;9.2;100.0;102710;;;;
2022/04/29 01:13:01;;;;;;;10.8;7.4;;;;;;;9.2;100.0;102710;;;;
2022/04/29 01:14:00;;;;;;;10.8;7.4;;;;;;;9.2;100.0;102700;;;;
2022/04/29 01:15:03;;;;;;;10.8;7.4;;;;;;;9.2;100.0;102700;;;;
2022/04/29 01:16:00;;;;;;;10.8;7.4;;;;;;;9.0;100.0;102700;;;;
2022/04/29 01:17:00;;;;;;;10.8;7.4;;;;;;;9.0;100.0;102700;;;;
2022/04/29 01:18:01;;;;;;;10.8;7.4;;;;;;;9.1;100.0;102710;;;;
2022/04/29 01:19:00;;;;;;;10.8;7.4;;;;;;;9.1;100.0;102710;;;;
2022/04/29 01:20:01;;;;;;;10.8;7.4;;;;;;;9.0;100.0;102710;;;;
2022/04/29 01:21:01;;;;;;;10.8;7.4;;;;;;;9.0;100.0;102710;;;;
2022/04/29 01:22:00;;;;;;;10.8;7.4;;;;;;;9.0;100.0;102700;;;;
2022/04/29 01:23:08;;;;;;;10.8;7.4;;;;;;;9.0;100.0;102700;;;;
2022/04/29 01:24:00;;;;;;;10.8;7.4;;;;;;;9.1;100.0;102700;;;;
2022/04/29 01:25:00;;;;;;;8.7;7.7;;;;;;;9.1;100.0;102700;;;;
2022/04/29 01:26:00;;;;;;;8.7;7.7;;;;;;;9.0;100.0;102700;;;;
2022/04/29 01:27:00;;;;;;;8.7;7.7;;;;;;;9.0;100.0;102700;;;;
2022/04/29 01:28:00;;;;;;;8.7;7.7;;;;;;;9.0;100.0;102690;;;;
2022/04/29 01:29:01;;;;;;;8.7;7.7;;;;;;;9.0;100.0;102690;;;;
2022/04/29 01:30:06;;;;;;;8.7;7.7;;;;;;;9.0;100.0;102690;;;;
2022/04/29 01:31:01;;;;;;;8.7;7.7;;;;;;;9.0;100.0;102690;;;;
2022/04/29 01:32:00;;;;;;;8.7;7.7;;;;;;;9.0;100.0;102690;;;;
2022/04/29 01:33:00;;;;;;;8.7;7.7;;;;;;;9.0;100.0;102690;;;;
2022/04/29 01:34:01;;;;;;;8.7;7.7;;;;;;;8.9;100.0;102690;;;;
2022/04/29 01:35:00;;;;;;;8.7;7.7;;;;;;;8.9;100.0;102690;;;;
2022/04/29 01:36:00;;;;;;;8.7;7.7;;;;;;;9.1;100.0;102690;;;;
2022/04/29 01:37:00;;;;;;;8.7;7.7;;;;;;;9.1;100.0;102690;;;;
2022/04/29 01:38:00;;;;;;;8.7;7.7;;;;;;;8.8;100.0;102690;;;;
2022/04/29 01:39:00;;;;;;;8.7;7.7;;;;;;;8.8;100.0;102690;;;;
2022/04/29 01:40:00;;;;;;;8.7;7.7;;;;;;;8.7;100.0;102680;;;;
2022/04/29 01:41:00;;;;;;;8.7;7.7;;;;;;;8.7;100.0;102680;;;;
2022/04/29 01:42:00;;;;;;;8.7;7.7;;;;;;;8.8;100.0;102680;;;;
2022/04/29 01:43:00;;;;;;;8.7;7.7;;;;;;;8.8;100.0;102680;;;;
2022/04/29 01:44:00;;;;;;;13.7;8.8;;;;;;;8.6;100.0;102680;;;;
2022/04/29 01:45:00;;;;;;;13.7;8.8;;;;;;;8.6;100.0;102680;;;;
2022/04/29 01:46:01;;;;;;;13.7;8.8;;;;;;;8.6;100.0;102680;;;;
2022/04/29 01:47:00;;;;;;;13.7;8.8;;;;;;;8.6;100.0;102680;;;;
2022/04/29 01:48:00;;;;;;;13.7;8.8;;;;;;;8.8;100.0;102680;;;;
2022/04/29 01:49:00;;;;;;;13.7;8.8;;;;;;;8.8;100.0;102680;;;;
2022/04/29 01:50:00;;;;;;;13.7;8.8;;;;;;;8.8;100.0;102680;;;;
2022/04/29 01:51:05;;;;;;;13.7;8.8;;;;;;;8.8;100.0;102680;;;;
2022/04/29 01:52:00;;;;;;;13.7;8.8;;;;;;;8.8;100.0;102670;;;;
2022/04/29 01:53:00;;;;;;;13.7;8.8;;;;;;;8.8;100.0;102670;;;;
2022/04/29 01:54:00;;;;;;;13.7;8.8;;;;;;;8.8;100.0;102670;;;;
2022/04/29 01:55:00;;;;;;;13.7;8.8;;;;;;;8.8;100.0;102670;;;;
2022/04/29 01:56:00;;;;;;;13.7;8.8;;;;;;;8.6;100.0;102670;;;;
2022/04/29 01:57:00;;;;;;;13.7;8.8;;;;;;;8.6;100.0;102670;;;;
2022/04/29 01:58:00;;;;;;;13.7;8.8;;;;;;;8.6;100.0;102670;;;;
2022/04/29 01:59:00;;;;;;;13.7;8.8;;;;;;;8.6;100.0;102670;;;;
2022/04/29 02:00:00;;;;;;;13.7;8.8;;;;;;;8.6;100.0;102670;;;;
2022/04/29 02:01:00;;;;;;;13.7;8.8;;;;;;;8.6;100.0;102670;;;;
2022/04/29 02:02:00;;;;;;;13.7;8.8;;;;;;;8.6;100.0;102670;;;;
2022/04/29 02:03:00;;;;;;;13.7;8.8;;;;;;;8.6;100.0;102670;;;;
2022/04/29 02:04:01;;;;;;;12.2;8.9;;;;;;;8.6;100.0;102670;;;;
2022/04/29 02:05:00;;;;;;;12.2;8.9;;;;;;;8.6;100.0;102670;;;;
2022/04/29 02:06:00;;;;;;;12.2;8.9;;;;;;;8.6;100.0;102670;;;;
2022/04/29 02:07:00;;;;;;;12.2;8.9;;;;;;;8.6;100.0;102670;;;;
2022/04/29 02:08:00;;;;;;;12.2;8.9;;;;;;;8.5;100.0;102660;;;;
2022/04/29 02:09:00;;;;;;;12.2;8.9;;;;;;;8.5;100.0;102660;;;;
2022/04/29 02:10:00;;;;;;;12.2;8.9;;;;;;;8.6;100.0;102660;;;;
2022/04/29 02:11:00;;;;;;;12.2;8.9;;;;;;;8.6;100.0;102660;;;;
2022/04/29 02:12:07;;;;;;;12.2;8.9;;;;;;;8.6;100.0;102660;;;;
2022/04/29 02:13:00;;;;;;;12.2;8.9;;;;;;;8.6;100.0;102660;;;;
2022/04/29 02:14:00;;;;;;;12.2;8.9;;;;;;;8.5;100.0;102670;;;;
2022/04/29 02:15:00;;;;;;;12.2;8.9;;;;;;;8.5;100.0;102670;;;;
2022/04/29 02:16:00;;;;;;;12.2;8.9;;;;;;;8.5;100.0;102670;;;;
2022/04/29 02:17:02;;;;;;;12.2;8.9;;;;;;;8.5;100.0;102670;;;;
2022/04/29 02:18:00;;;;;;;12.2;8.9;;;;;;;8.4;100.0;102670;;;;
2022/04/29 02:19:00;;;;;;;12.2;8.9;;;;;;;8.4;100.0;102670;;;;
2022/04/29 02:20:00;;;;;;;12.2;8.9;;;;;;;8.4;100.0;102680;;;;
2022/04/29 02:21:00;;;;;;;12.2;8.9;;;;;;;8.4;100.0;102680;;;;
2022/04/29 02:22:01;;;;;;;12.2;8.9;;;;;;;8.4;100.0;102680;;;;
2022/04/29 02:23:00;;;;;;;12.2;8.9;;;;;;;8.4;100.0;102680;;;;
2022/04/29 02:24:00;;;;;;;14.1;9.3;;;;;;;8.4;100.0;102680;;;;
2022/04/29 02:25:00;;;;;;;14.1;9.3;;;;;;;8.4;100.0;102680;;;;
2022/04/29 02:26:00;;;;;;;14.1;9.3;;;;;;;8.5;100.0;102670;;;;
2022/04/29 02:27:00;;;;;;;14.1;9.3;;;;;;;8.5;100.0;102670;;;;
2022/04/29 02:28:00;;;;;;;14.1;9.3;;;;;;;8.4;100.0;102670;;;;
2022/04/29 02:29:00;;;;;;;14.1;9.3;;;;;;;8.4;100.0;102670;;;;
2022/04/29 02:30:00;;;;;;;14.1;9.3;;;;;;;8.4;100.0;102670;;;;
2022/04/29 02:31:00;;;;;;;14.1;9.3;;;;;;;8.4;100.0;102670;;;;
2022/04/29 02:32:00;;;;;;;14.1;9.3;;;;;;;8.4;100.0;102660;;;;
2022/04/29 02:33:00;;;;;;;14.1;9.3;;;;;;;8.4;100.0;102660;;;;
2022/04/29 02:34:00;;;;;;;14.1;9.3;;;;;;;8.3;100.0;102660;;;;
2022/04/29 02:35:00;;;;;;;14.1;9.3;;;;;;;8.3;100.0;102660;;;;
2022/04/29 02:36:01;;;;;;;14.1;9.3;;;;;;;8.3;100.0;102660;;;;
2022/04/29 02:37:00;;;;;;;14.1;9.3;;;;;;;8.3;100.0;102660;;;;
2022/04/29 02:38:00;;;;;;;14.1;9.3;;;;;;;8.3;100.0;102660;;;;
2022/04/29 02:39:02;;;;;;;14.1;9.3;;;;;;;8.3;100.0;102660;;;;
2022/04/29 02:40:00;;;;;;;14.1;9.3;;;;;;;8.3;100.0;102670;;;;
2022/04/29 02:41:00;;;;;;;14.1;9.3;;;;;;;8.3;100.0;102670;;;;
2022/04/29 02:42:00;;;;;;;14.1;9.3;;;;;;;8.4;100.0;102660;;;;
2022/04/29 02:43:00;;;;;;;14.1;9.3;;;;;;;8.4;100.0;102660;;;;
2022/04/29 02:44:00;;;;;;;14.2;10.2;;;;;;;8.4;100.0;102660;;;;
2022/04/29 02:45:00;;;;;;;14.2;10.2;;;;;;;8.4;100.0;102660;;;;
2022/04/29 02:46:00;;;;;;;14.2;10.2;;;;;;;8.4;100.0;102660;;;;
2022/04/29 02:47:07;;;;;;;14.2;10.2;;;;;;;8.4;100.0;102660;;;;
2022/04/29 02:48:00;;;;;;;14.2;10.2;;;;;;;8.3;100.0;102660;;;;
2022/04/29 02:49:00;;;;;;;14.2;10.2;;;;;;;8.3;100.0;102660;;;;
2022/04/29 02:50:00;;;;;;;14.2;10.2;;;;;;;8.4;100.0;102650;;;;
2022/04/29 02:51:00;;;;;;;14.2;10.2;;;;;;;8.4;100.0;102650;;;;
2022/04/29 02:52:00;;;;;;;14.2;10.2;;;;;;;8.4;100.0;102650;;;;
2022/04/29 02:53:00;;;;;;;14.2;10.2;;;;;;;8.4;100.0;102650;;;;
2022/04/29 02:54:00;;;;;;;14.2;10.2;;;;;;;8.3;100.0;102650;;;;
2022/04/29 02:55:00;;;;;;;14.2;10.2;;;;;;;8.3;100.0;102650;;;;
2022/04/29 02:56:00;;;;;;;14.2;10.2;;;;;;;8.4;100.0;102660;;;;
2022/04/29 02:57:00;;;;;;;14.2;10.2;;;;;;;8.4;100.0;102660;;;;
2022/04/29 02:58:00;;;;;;;14.2;10.2;;;;;;;8.3;100.0;102650;;;;
2022/04/29 02:59:00;;;;;;;14.2;10.2;;;;;;;8.3;100.0;102650;;;;
2022/04/29 03:00:00;;;;;;;14.2;10.2;;;;;;;8.2;100.0;102650;;;;
2022/04/29 03:01:00;;;;;;;14.2;10.2;;;;;;;8.2;100.0;102650;;;;
2022/04/29 03:02:00;;;;;;;14.2;10.2;;;;;;;8.2;100.0;102650;;;;
2022/04/29 03:03:00;;;;;;;14.2;10.2;;;;;;;8.2;100.0;102650;;;;
2022/04/29 03:04:00;;;;;;;13.7;10.5;;;;;;;8.2;100.0;102650;;;;
2022/04/29 03:05:00;;;;;;;13.7;10.5;;;;;;;8.2;100.0;102650;;;;
2022/04/29 03:06:00;;;;;;;13.7;10.5;;;;;;;8.2;100.0;102650;;;;
2022/04/29 03:07:00;;;;;;;13.7;10.5;;;;;;;8.2;100.0;102650;;;;
2022/04/29 03:08:00;;;;;;;13.7;10.5;;;;;;;8.1;100.0;102660;;;;
2022/04/29 03:09:00;;;;;;;13.7;10.5;;;;;;;8.1;100.0;102660;;;;
2022/04/29 03:10:00;;;;;;;13.7;10.5;;;;;;;8.1;100.0;102650;;;;
2022/04/29 03:11:00;;;;;;;13.7;10.5;;;;;;;8.1;100.0;102650;;;;
2022/04/29 03:12:00;;;;;;;13.7;10.5;;;;;;;8.1;100.0;102650;;;;
2022/04/29 03:13:00;;;;;;;13.7;10.5;;;;;;;8.1;100.0;102650;;;;
2022/04/29 03:14:00;;;;;;;13.7;10.5;;;;;;;8.1;100.0;102650;;;;
2022/04/29 03:16:00;;;;;;;13.7;10.5;;;;;;;8.1;100.0;102650;;;;
2022/04/29 03:17:00;;;;;;;13.7;10.5;;;;;;;8.1;100.0;102650;;;;
2022/04/29 03:19:00;;;;;;;13.7;10.5;;;;;;;8.1;100.0;102650;;;;
2022/04/29 03:20:00;;;;;;;13.7;10.5;;;;;;;8.1;100.0;102650;;;;
2022/04/29 03:21:00;;;;;;;13.7;10.5;;;;;;;8.1;100.0;102650;;;;
2022/04/29 03:22:00;;;;;;;13.7;10.5;;;;;;;8.0;100.0;102640;;;;
2022/04/29 03:23:00;;;;;;;13.7;10.5;;;;;;;8.0;100.0;102640;;;;
2022/04/29 03:24:00;;;;;;;12.6;11.2;;;;;;;8.0;100.0;102650;;;;
2022/04/29 03:25:00;;;;;;;12.6;11.2;;;;;;;8.0;100.0;102650;;;;
2022/04/29 03:26:00;;;;;;;12.6;11.2;;;;;;;8.1;100.0;102640;;;;
2022/04/29 03:27:00;;;;;;;12.6;11.2;;;;;;;8.1;100.0;102640;;;;
2022/04/29 03:28:00;;;;;;;12.6;11.2;;;;;;;8.1;100.0;102650;;;;
2022/04/29 03:29:00;;;;;;;12.6;11.2;;;;;;;8.1;100.0;102650;;;;
2022/04/29 03:30:06;;;;;;;12.6;11.2;;;;;;;8.0;100.0;102640;;;;
2022/04/29 03:31:00;;;;;;;12.6;11.2;;;;;;;8.0;100.0;102640;;;;
2022/04/29 03:32:00;;;;;;;12.6;11.2;;;;;;;7.9;100.0;102630;;;;
2022/04/29 03:33:00;;;;;;;12.6;11.2;;;;;;;7.9;100.0;102630;;;;
2022/04/29 03:34:00;;;;;;;12.6;11.2;;;;;;;7.8;100.0;102630;;;;
2022/04/29 03:35:00;;;;;;;12.6;11.2;;;;;;;7.8;100.0;102630;;;;
2022/04/29 03:36:00;;;;;;;12.6;11.2;;;;;;;7.8;100.0;102630;;;;
2022/04/29 03:37:00;;;;;;;12.6;11.2;;;;;;;7.8;100.0;102630;;;;
2022/04/29 03:38:00;;;;;;;12.6;11.2;;;;;;;7.7;100.0;102620;;;;
2022/04/29 03:39:00;;;;;;;12.6;11.2;;;;;;;7.7;100.0;102620;;;;
2022/04/29 03:40:00;;;;;;;12.6;11.2;;;;;;;7.7;100.0;102620;;;;
2022/04/29 03:41:01;;;;;;;12.6;11.2;;;;;;;7.7;100.0;102620;;;;
2022/04/29 03:42:00;;;;;;;12.6;11.2;;;;;;;7.7;100.0;102620;;;;
2022/04/29 03:43:00;;;;;;;12.6;11.2;;;;;;;7.7;100.0;102620;;;;
2022/04/29 03:44:00;;;;;;;16.1;12.5;;;;;;;7.8;100.0;102610;;;;
2022/04/29 03:45:00;;;;;;;16.1;12.5;;;;;;;7.8;100.0;102610;;;;
2022/04/29 03:46:00;;;;;;;16.1;12.5;;;;;;;7.9;100.0;102610;;;;
2022/04/29 03:47:00;;;;;;;16.1;12.5;;;;;;;7.9;100.0;102610;;;;
2022/04/29 03:48:00;;;;;;;16.1;12.5;;;;;;;7.8;100.0;102610;;;;
2022/04/29 03:50:01;;;;;;;16.1;12.5;;;;;;;7.8;100.0;102620;;;;
2022/04/29 03:51:00;;;;;;;16.1;12.5;;;;;;;7.8;100.0;102620;;;;
2022/04/29 03:52:00;;;;;;;16.1;12.5;;;;;;;7.7;100.0;102620;;;;
2022/04/29 03:53:01;;;;;;;16.1;12.5;;;;;;;7.7;100.0;102620;;;;
2022/04/29 03:54:00;;;;;;;16.1;12.5;;;;;;;7.8;100.0;102630;;;;
2022/04/29 03:55:00;;;;;;;16.1;12.5;;;;;;;7.8;100.0;102630;;;;
2022/04/29 03:56:00;;;;;;;16.1;12.5;;;;;;;7.8;100.0;102630;;;;
2022/04/29 03:57:00;;;;;;;16.1;12.5;;;;;;;7.8;100.0;102630;;;;
2022/04/29 03:58:02;;;;;;;16.1;12.5;;;;;;;7.8;100.0;102630;;;;
2022/04/29 03:59:00;;;;;;;16.1;12.5;;;;;;;7.8;100.0;102630;;;;
2022/04/29 04:00:00;;;;;;;16.1;12.5;;;;;;;7.8;100.0;102640;;;;
2022/04/29 04:01:00;;;;;;;16.1;12.5;;;;;;;7.8;100.0;102640;;;;
2022/04/29 04:02:00;;;;;;;16.1;12.5;;;;;;;8.0;100.0;102640;;;;
2022/04/29 04:03:05;;;;;;;16.1;12.5;;;;;;;8.0;100.0;102640;;;;
2022/04/29 04:04:03;;;;;;;14.8;12.4;;;;;;;8.0;100.0;102640;;;;
2022/04/29 04:05:00;;;;;;;14.8;12.4;;;;;;;8.0;100.0;102640;;;;
2022/04/29 04:07:02;;;;;;;14.8;12.4;;;;;;;8.1;100.0;102630;;;;
2022/04/29 04:08:00;;;;;;;14.8;12.4;;;;;;;8.1;100.0;102630;;;;
2022/04/29 04:09:00;;;;;;;14.8;12.4;;;;;;;8.1;100.0;102630;;;;
2022/04/29 04:10:00;;;;;;;14.8;12.4;;;;;;;7.9;100.0;102630;;;;
2022/04/29 04:11:00;;;;;;;14.8;12.4;;;;;;;7.9;100.0;102630;;;;
2022/04/29 04:12:00;;;;;;;14.8;12.4;;;;;;;7.9;100.0;102640;;;;
2022/04/29 04:13:00;;;;;;;14.8;12.4;;;;;;;7.9;100.0;102640;;;;
2022/04/29 04:14:00;;;;;;;14.8;12.4;;;;;;;8.0;100.0;102640;;;;
2022/04/29 04:15:00;;;;;;;14.8;12.4;;;;;;;8.0;100.0;102640;;;;
2022/04/29 04:16:00;;;;;;;14.8;12.4;;;;;;;7.9;100.0;102630;;;;
2022/04/29 04:17:00;;;;;;;14.8;12.4;;;;;;;7.9;100.0;102630;;;;
2022/04/29 04:18:02;;;;;;;14.8;12.4;;;;;;;7.8;100.0;102630;;;;
2022/04/29 04:19:00;;;;;;;14.8;12.4;;;;;;;7.8;100.0;102630;;;;
2022/04/29 04:20:00;;;;;;;14.8;12.4;;;;;;;7.9;100.0;102630;;;;
2022/04/29 04:21:00;;;;;;;14.8;12.4;;;;;;;7.9;100.0;102630;;;;
2022/04/29 04:22:00;;;;;;;14.8;12.4;;;;;;;7.9;100.0;102630;;;;
2022/04/29 04:23:00;;;;;;;14.8;12.4;;;;;;;7.9;100.0;102630;;;;
2022/04/29 04:24:00;;;;;;;14.6;12.6;;;;;;;7.8;100.0;102620;;;;
2022/04/29 04:25:00;;;;;;;14.6;12.6;;;;;;;7.8;100.0;102620;;;;
2022/04/29 04:26:00;;;;;;;14.6;12.6;;;;;;;7.7;100.0;102620;;;;
2022/04/29 04:27:00;;;;;;;14.6;12.6;;;;;;;7.7;100.0;102620;;;;
2022/04/29 04:28:00;;;;;;;14.6;12.6;;;;;;;7.7;100.0;102620;;;;
2022/04/29 04:29:00;;;;;;;14.6;12.6;;;;;;;7.7;100.0;102620;;;;
2022/04/29 04:30:00;;;;;;;14.6;12.6;;;;;;;7.7;100.0;102620;;;;
2022/04/29 04:31:00;;;;;;;14.6;12.6;;;;;;;7.7;100.0;102620;;;;
2022/04/29 04:32:00;;;;;;;14.6;12.6;;;;;;;7.8;100.0;102630;;;;
2022/04/29 04:33:00;;;;;;;14.6;12.6;;;;;;;7.8;100.0;102630;;;;
2022/04/29 04:34:49;;;;;;;14.6;12.6;;;;;;;7.9;100.0;102630;;;;
2022/04/29 04:35:01;;;;;;;14.6;12.6;;;;;;;7.9;100.0;102630;;;;
2022/04/29 04:36:00;;;;;;;14.6;12.6;;;;;;;7.9;100.0;102630;;;;
2022/04/29 04:37:00;;;;;;;14.6;12.6;;;;;;;7.9;100.0;102630;;;;
2022/04/29 04:38:00;;;;;;;14.6;12.6;;;;;;;7.8;100.0;102620;;;;
2022/04/29 04:39:00;;;;;;;14.6;12.6;;;;;;;7.8;100.0;102620;;;;
2022/04/29 04:40:02;;;;;;;14.6;12.6;;;;;;;7.9;100.0;102620;;;;
2022/04/29 04:41:00;;;;;;;14.6;12.6;;;;;;;7.9;100.0;102620;;;;
2022/04/29 04:42:00;;;;;;;14.6;12.6;;;;;;;7.8;100.0;102620;;;;
2022/04/29 04:43:00;;;;;;;14.6;12.6;;;;;;;7.8;100.0;102620;;;;
2022/04/29 04:44:00;;;;;;;18.8;13.8;;;;;;;7.8;100.0;102620;;;;
2022/04/29 04:45:00;;;;;;;18.8;13.8;;;;;;;7.8;100.0;102620;;;;
2022/04/29 04:46:00;;;;;;;18.8;13.8;;;;;;;7.7;100.0;102620;;;;
2022/04/29 04:47:00;;;;;;;18.8;13.8;;;;;;;7.7;100.0;102620;;;;
2022/04/29 04:48:00;;;;;;;18.8;13.8;;;;;;;7.7;100.0;102620;;;;
2022/04/29 04:49:00;;;;;;;18.8;13.8;;;;;;;7.7;100.0;102620;;;;
2022/04/29 04:50:00;;;;;;;18.8;13.8;;;;;;;7.7;100.0;102620;;;;
2022/04/29 04:51:04;;;;;;;18.8;13.8;;;;;;;7.7;100.0;102620;;;;
2022/04/29 04:52:02;;;;;;;18.8;13.8;;;;;;;7.8;100.0;102630;;;;
2022/04/29 04:53:00;;;;;;;18.8;13.8;;;;;;;7.8;100.0;102630;;;;
2022/04/29 04:54:00;;;;;;;18.8;13.8;;;;;;;7.9;100.0;102630;;;;
2022/04/29 04:55:04;;;;;;;18.8;13.8;;;;;;;7.9;100.0;102630;;;;
2022/04/29 04:56:00;;;;;;;18.8;13.8;;;;;;;7.8;100.0;102630;;;;
2022/04/29 04:57:00;;;;;;;18.8;13.8;;;;;;;7.8;100.0;102630;;;;
2022/04/29 04:58:00;;;;;;;18.8;13.8;;;;;;;7.8;100.0;102630;;;;
2022/04/29 04:59:00;;;;;;;18.8;13.8;;;;;;;7.8;100.0;102630;;;;
2022/04/29 05:00:00;;;;;;;18.8;13.8;;;;;;;7.8;100.0;102630;;;;
2022/04/29 05:01:00;;;;;;;18.8;13.8;;;;;;;7.8;100.0;102630;;;;
2022/04/29 05:02:00;;;;;;;18.8;13.8;;;;;;;7.9;100.0;102620;;;;
2022/04/29 05:03:00;;;;;;;18.8;13.8;;;;;;;7.9;100.0;102620;;;;
2022/04/29 05:04:00;;;;;;;16.5;13.7;;;;;;;7.9;100.0;102620;;;;
2022/04/29 05:05:00;;;;;;;16.5;13.7;;;;;;;7.9;100.0;102620;;;;
2022/04/29 05:06:00;;;;;;;16.5;13.7;;;;;;;7.8;100.0;102620;;;;
2022/04/29 05:07:00;;;;;;;16.5;13.7;;;;;;;7.8;100.0;102620;;;;
2022/04/29 05:08:00;;;;;;;16.5;13.7;;;;;;;7.8;100.0;102620;;;;
2022/04/29 05:09:00;;;;;;;16.5;13.7;;;;;;;7.8;100.0;102620;;;;
2022/04/29 05:10:00;;;;;;;16.5;13.7;;;;;;;7.8;100.0;102620;;;;
2022/04/29 05:11:00;;;;;;;16.5;13.7;;;;;;;7.8;100.0;102620;;;;
2022/04/29 05:12:07;;;;;;;16.5;13.7;;;;;;;8.0;100.0;102630;;;;
2022/04/29 05:13:00;;;;;;;16.5;13.7;;;;;;;8.0;100.0;102630;;;;
2022/04/29 05:14:00;;;;;;;16.5;13.7;;;;;;;7.8;100.0;102630;;;;
2022/04/29 05:15:01;;;;;;;16.5;13.7;;;;;;;7.8;100.0;102630;;;;
2022/04/29 05:16:00;;;;;;;16.5;13.7;;;;;;;7.9;100.0;102630;;;;
2022/04/29 05:17:00;;;;;;;16.5;13.7;;;;;;;7.9;100.0;102630;;;;
2022/04/29 05:18:00;;;;;;;16.5;13.7;;;;;;;8.0;100.0;102630;;;;
2022/04/29 05:19:00;;;;;;;16.5;13.7;;;;;;;8.0;100.0;102630;;;;
2022/04/29 05:20:00;;;;;;;16.5;13.7;;;;;;;7.9;100.0;102630;;;;
2022/04/29 05:21:00;;;;;;;16.5;13.7;;;;;;;7.9;100.0;102630;;;;
2022/04/29 05:22:00;;;;;;;16.5;13.7;;;;;;;7.9;100.0;102630;;;;
2022/04/29 05:23:00;;;;;;;16.5;13.7;;;;;;;7.9;100.0;102630;;;;
2022/04/29 05:24:00;;;;;;;15.3;13.7;;;;;;;7.9;100.0;102630;;;;
2022/04/29 05:25:00;;;;;;;15.3;13.7;;;;;;;7.9;100.0;102630;;;;
2022/04/29 05:26:00;;;;;;;15.3;13.7;;;;;;;7.9;100.0;102630;;;;
2022/04/29 05:27:01;;;;;;;15.3;13.7;;;;;;;7.9;100.0;102630;;;;
2022/04/29 05:28:00;;;;;;;15.3;13.7;;;;;;;8.1;100.0;102630;;;;
2022/04/29 05:29:00;;;;;;;15.3;13.7;;;;;;;8.1;100.0;102630;;;;
2022/04/29 05:30:05;;;;;;;15.3;13.7;;;;;;;8.1;100.0;102630;;;;
2022/04/29 05:31:01;;;;;;;15.3;13.7;;;;;;;8.1;100.0;102630;;;;
2022/04/29 05:32:01;;;;;;;15.3;13.7;;;;;;;8.1;100.0;102620;;;;
2022/04/29 05:33:00;;;;;;;15.3;13.7;;;;;;;8.1;100.0;102620;;;;
2022/04/29 05:34:00;;;;;;;15.3;13.7;;;;;;;8.1;100.0;102630;;;;
2022/04/29 05:35:00;;;;;;;15.3;13.7;;;;;;;8.1;100.0;102630;;;;
2022/04/29 05:36:00;;;;;;;15.3;13.7;;;;;;;8.0;100.0;102630;;;;
2022/04/29 05:37:00;;;;;;;15.3;13.7;;;;;;;8.0;100.0;102630;;;;
2022/04/29 05:38:00;;;;;;;15.3;13.7;;;;;;;8.0;100.0;102630;;;;
2022/04/29 05:43:00;;;;;;;15.3;13.7;;;;;;;8.0;100.0;102630;;;;
2022/04/29 05:44:00;;;;;;;15.9;14.2;;;;;;;8.0;100.0;102630;;;;
2022/04/29 05:45:00;;;;;;;15.9;14.2;;;;;;;8.0;100.0;102630;;;;
2022/04/29 05:46:00;;;;;;;15.9;14.2;;;;;;;8.0;100.0;102630;;;;
2022/04/29 05:47:00;;;;;;;15.9;14.2;;;;;;;8.0;100.0;102630;;;;
2022/04/29 05:48:00;;;;;;;15.9;14.2;;;;;;;8.1;100.0;102630;;;;
2022/04/29 05:49:03;;;;;;;15.9;14.2;;;;;;;8.1;100.0;102630;;;;
2022/04/29 05:50:00;;;;;;;15.9;14.2;;;;;;;8.1;100.0;102630;;;;
2022/04/29 05:51:00;;;;;;;15.9;14.2;;;;;;;8.1;100.0;102630;;;;
2022/04/29 05:52:01;;;;;;;15.9;14.2;;;;;;;8.1;100.0;102630;;;;
2022/04/29 05:53:00;;;;;;;15.9;14.2;;;;;;;8.1;100.0;102630;;;;
2022/04/29 05:54:00;;;;;;;15.9;14.2;;;;;;;7.9;100.0;102630;;;;
2022/04/29 05:55:00;;;;;;;15.9;14.2;;;;;;;7.9;100.0;102630;;;;
2022/04/29 05:56:00;;;;;;;15.9;14.2;;;;;;;8.1;100.0;102630;;;;
2022/04/29 05:57:01;;;;;;;15.9;14.2;;;;;;;8.1;100.0;102630;;;;
2022/04/29 05:58:00;;;;;;;15.9;14.2;;;;;;;8.1;100.0;102630;;;;
2022/04/29 05:59:00;;;;;;;15.9;14.2;;;;;;;8.1;100.0;102630;;;;
2022/04/29 06:00:00;;;;;;;15.9;14.2;;;;;;;8.2;100.0;102630;;;;
2022/04/29 06:01:01;;;;;;;15.9;14.2;;;;;;;8.2;100.0;102630;;;;
2022/04/29 06:02:00;;;;;;;15.9;14.2;;;;;;;8.0;100.0;102630;;;;
2022/04/29 06:03:00;;;;;;;15.9;14.2;;;;;;;8.0;100.0;102630;;;;
2022/04/29 06:04:00;;;;;;;16.6;14.3;;;;;;;7.9;100.0;102630;;;;
2022/04/29 06:05:01;;;;;;;16.6;14.3;;;;;;;7.9;100.0;102630;;;;
2022/04/29 06:06:00;;;;;;;16.6;14.3;;;;;;;8.0;100.0;102630;;;;
2022/04/29 06:07:00;;;;;;;16.6;14.3;;;;;;;8.0;100.0;102630;;;;
2022/04/29 06:08:00;;;;;;;16.6;14.3;;;;;;;8.1;100.0;102630;;;;
2022/04/29 06:09:00;;;;;;;16.6;14.3;;;;;;;8.1;100.0;102630;;;;
2022/04/29 06:10:00;;;;;;;16.6;14.3;;;;;;;8.2;100.0;102630;;;;
2022/04/29 06:11:00;;;;;;;16.6;14.3;;;;;;;8.2;100.0;102630;;;;
2022/04/29 06:12:02;;;;;;;16.6;14.3;;;;;;;8.2;100.0;102630;;;;
2022/04/29 06:13:00;;;;;;;16.6;14.3;;;;;;;8.2;100.0;102630;;;;
2022/04/29 06:14:00;;;;;;;16.6;14.3;;;;;;;8.1;100.0;102640;;;;
2022/04/29 06:15:00;;;;;;;16.6;14.3;;;;;;;8.1;100.0;102640;;;;
2022/04/29 06:16:00;;;;;;;16.6;14.3;;;;;;;8.1;100.0;102640;;;;
2022/04/29 06:17:00;;;;;;;16.6;14.3;;;;;;;8.1;100.0;102640;;;;
2022/04/29 06:18:00;;;;;;;16.6;14.3;;;;;;;8.2;100.0;102640;;;;
2022/04/29 06:19:00;;;;;;;16.6;14.3;;;;;;;8.2;100.0;102640;;;;
2022/04/29 06:20:00;;;;;;;16.6;14.3;;;;;;;8.1;100.0;102650;;;;
2022/04/29 06:21:00;;;;;;;16.6;14.3;;;;;;;8.1;100.0;102650;;;;
2022/04/29 06:22:00;;;;;;;16.6;14.3;;;;;;;8.2;100.0;102650;;;;
2022/04/29 06:23:00;;;;;;;19.4;14.0;;;;;;;8.2;100.0;102650;;;;
2022/04/29 06:24:00;;;;;;;19.4;14.0;;;;;;;8.3;100.0;102650;;;;
2022/04/29 06:25:10;;;;;;;19.4;14.0;;;;;;;8.3;100.0;102650;;;;
2022/04/29 06:26:00;;;;;;;19.4;14.0;;;;;;;8.3;100.0;102650;;;;
2022/04/29 06:27:01;;;;;;;19.4;14.0;;;;;;;8.3;100.0;102650;;;;